sensor_id;sensor_type;location;lat;lon;timestamp;P1;durP1;ratioP1;P2;durP2;ratioP2
54121;SDS011;40029;58.708;50.190;2023-04-24T00:01:39;6.68;;;2.70;;
54121;SDS011;40029;58.708;50.190;2023-04-24T00:04:10;4.45;;;2.58;;
54121;SDS011;40029;58.708;50.190;2023-04-24T00:06:41;4.03;;;2.60;;
54121;SDS011;40029;58.708;50.190;2023-04-24T00:09:14;2.35;;;1.95;;
54121;SDS011;40029;58.708;50.190;2023-04-24T00:11:46;4.45;;;2.15;;
54121;SDS011;40029;58.708;50.190;2023-04-24T00:14:17;2.72;;;1.73;;
54121;SDS011;40029;58.708;50.190;2023-04-24T00:16:48;2.17;;;1.55;;
54121;SDS011;40029;58.708;50.190;2023-04-24T00:19:20;2.47;;;1.52;;
54121;SDS011;40029;58.708;50.190;2023-04-24T00:21:51;2.28;;;1.20;;
54121;SDS011;40029;58.708;50.190;2023-04-24T00:24:22;1.58;;;1.25;;
54121;SDS011;40029;58.708;50.190;2023-04-24T00:26:53;3.35;;;1.38;;
54121;SDS011;40029;58.708;50.190;2023-04-24T00:29:25;1.48;;;1.20;;
54121;SDS011;40029;58.708;50.190;2023-04-24T00:32:14;3.45;;;1.63;;
54121;SDS011;40029;58.708;50.190;2023-04-24T00:34:45;7.07;;;5.00;;
54121;SDS011;40029;58.708;50.190;2023-04-24T00:37:16;8.00;;;3.53;;
54121;SDS011;40029;58.708;50.190;2023-04-24T00:39:49;3.45;;;2.28;;
54121;SDS011;40029;58.708;50.190;2023-04-24T00:42:20;5.30;;;1.90;;
54121;SDS011;40029;58.708;50.190;2023-04-24T00:44:51;2.47;;;1.95;;
54121;SDS011;40029;58.708;50.190;2023-04-24T00:47:25;3.75;;;2.03;;
54121;SDS011;40029;58.708;50.190;2023-04-24T00:49:56;2.00;;;1.70;;
54121;SDS011;40029;58.708;50.190;2023-04-24T00:52:27;4.30;;;1.98;;
54121;SDS011;40029;58.708;50.190;2023-04-24T00:55:17;3.72;;;2.13;;
54121;SDS011;40029;58.708;50.190;2023-04-24T00:57:48;2.70;;;2.00;;
54121;SDS011;40029;58.708;50.190;2023-04-24T01:00:20;3.53;;;1.60;;
54121;SDS011;40029;58.708;50.190;2023-04-24T01:02:51;2.25;;;1.73;;
54121;SDS011;40029;58.708;50.190;2023-04-24T01:05:23;5.35;;;2.03;;
54121;SDS011;40029;58.708;50.190;2023-04-24T01:07:54;3.92;;;1.98;;
54121;SDS011;40029;58.708;50.190;2023-04-24T01:10:26;6.32;;;2.50;;
54121;SDS011;40029;58.708;50.190;2023-04-24T01:13:00;3.47;;;1.73;;
54121;SDS011;40029;58.708;50.190;2023-04-24T01:15:31;6.00;;;2.10;;
54121;SDS011;40029;58.708;50.190;2023-04-24T01:18:21;15.18;;;3.15;;
54121;SDS011;40029;58.708;50.190;2023-04-24T01:20:56;4.72;;;1.90;;
54121;SDS011;40029;58.708;50.190;2023-04-24T01:23:28;5.20;;;1.80;;
54121;SDS011;40029;58.708;50.190;2023-04-24T01:26:18;5.38;;;1.80;;
54121;SDS011;40029;58.708;50.190;2023-04-24T01:29:09;3.58;;;1.92;;
54121;SDS011;40029;58.708;50.190;2023-04-24T01:31:41;3.35;;;2.00;;
54121;SDS011;40029;58.708;50.190;2023-04-24T01:34:12;8.82;;;1.92;;
54121;SDS011;40029;58.708;50.190;2023-04-24T01:36:45;8.82;;;2.53;;
54121;SDS011;40029;58.708;50.190;2023-04-24T01:39:35;15.15;;;2.92;;
54121;SDS011;40029;58.708;50.190;2023-04-24T01:42:06;15.85;;;3.20;;
54121;SDS011;40029;58.708;50.190;2023-04-24T01:44:37;17.23;;;3.97;;
54121;SDS011;40029;58.708;50.190;2023-04-24T01:47:09;31.15;;;4.95;;
54121;SDS011;40029;58.708;50.190;2023-04-24T01:49:41;16.80;;;5.88;;
54121;SDS011;40029;58.708;50.190;2023-04-24T01:52:12;14.15;;;4.13;;
54121;SDS011;40029;58.708;50.190;2023-04-24T01:54:43;6.72;;;2.20;;
54121;SDS011;40029;58.708;50.190;2023-04-24T01:57:15;4.03;;;2.03;;
54121;SDS011;40029;58.708;50.190;2023-04-24T01:59:47;3.92;;;1.75;;
54121;SDS011;40029;58.708;50.190;2023-04-24T02:02:19;3.75;;;2.08;;
54121;SDS011;40029;58.708;50.190;2023-04-24T02:04:51;4.18;;;1.80;;
54121;SDS011;40029;58.708;50.190;2023-04-24T02:07:41;9.52;;;1.95;;
54121;SDS011;40029;58.708;50.190;2023-04-24T02:10:13;7.05;;;1.85;;
54121;SDS011;40029;58.708;50.190;2023-04-24T02:13:04;6.70;;;1.90;;
54121;SDS011;40029;58.708;50.190;2023-04-24T02:15:35;4.57;;;2.20;;
54121;SDS011;40029;58.708;50.190;2023-04-24T02:18:08;7.25;;;1.90;;
54121;SDS011;40029;58.708;50.190;2023-04-24T02:20:39;3.33;;;1.80;;
54121;SDS011;40029;58.708;50.190;2023-04-24T02:23:10;4.78;;;1.90;;
54121;SDS011;40029;58.708;50.190;2023-04-24T02:26:00;3.28;;;1.58;;
54121;SDS011;40029;58.708;50.190;2023-04-24T02:28:31;4.25;;;1.40;;
54121;SDS011;40029;58.708;50.190;2023-04-24T02:31:02;9.27;;;2.40;;
54121;SDS011;40029;58.708;50.190;2023-04-24T02:33:33;7.28;;;1.83;;
54121;SDS011;40029;58.708;50.190;2023-04-24T02:36:04;2.97;;;1.25;;
54121;SDS011;40029;58.708;50.190;2023-04-24T02:38:36;3.00;;;1.40;;
54121;SDS011;40029;58.708;50.190;2023-04-24T02:41:07;2.17;;;1.50;;
54121;SDS011;40029;58.708;50.190;2023-04-24T02:43:38;1.58;;;1.23;;
54121;SDS011;40029;58.708;50.190;2023-04-24T02:46:09;2.30;;;1.38;;
54121;SDS011;40029;58.708;50.190;2023-04-24T02:48:41;2.53;;;1.73;;
54121;SDS011;40029;58.708;50.190;2023-04-24T02:51:12;3.03;;;1.42;;
54121;SDS011;40029;58.708;50.190;2023-04-24T02:53:43;1.85;;;1.45;;
54121;SDS011;40029;58.708;50.190;2023-04-24T02:56:14;2.63;;;1.63;;
54121;SDS011;40029;58.708;50.190;2023-04-24T02:58:45;6.75;;;2.00;;
54121;SDS011;40029;58.708;50.190;2023-04-24T03:01:16;3.10;;;1.60;;
54121;SDS011;40029;58.708;50.190;2023-04-24T03:03:48;6.53;;;2.22;;
54121;SDS011;40029;58.708;50.190;2023-04-24T03:06:20;12.23;;;5.15;;
54121;SDS011;40029;58.708;50.190;2023-04-24T03:08:51;5.68;;;1.90;;
54121;SDS011;40029;58.708;50.190;2023-04-24T03:11:22;5.75;;;2.88;;
54121;SDS011;40029;58.708;50.190;2023-04-24T03:13:53;6.68;;;3.22;;
54121;SDS011;40029;58.708;50.190;2023-04-24T03:16:25;8.05;;;2.13;;
54121;SDS011;40029;58.708;50.190;2023-04-24T03:18:59;13.43;;;1.40;;
54121;SDS011;40029;58.708;50.190;2023-04-24T03:21:34;5.80;;;0.98;;
54121;SDS011;40029;58.708;50.190;2023-04-24T03:24:07;3.65;;;1.17;;
54121;SDS011;40029;58.708;50.190;2023-04-24T03:26:40;1.97;;;0.87;;
54121;SDS011;40029;58.708;50.190;2023-04-24T03:29:24;11.82;;;1.50;;
54121;SDS011;40029;58.708;50.190;2023-04-24T03:31:55;1.42;;;0.82;;
54121;SDS011;40029;58.708;50.190;2023-04-24T03:34:27;53.90;;;4.85;;
54121;SDS011;40029;58.708;50.190;2023-04-24T03:37:00;4.97;;;1.00;;
54121;SDS011;40029;58.708;50.190;2023-04-24T03:39:32;6.45;;;1.52;;
54121;SDS011;40029;58.708;50.190;2023-04-24T03:42:04;4.10;;;1.40;;
54121;SDS011;40029;58.708;50.190;2023-04-24T03:44:46;26.88;;;2.35;;
54121;SDS011;40029;58.708;50.190;2023-04-24T03:47:17;14.65;;;1.92;;
54121;SDS011;40029;58.708;50.190;2023-04-24T03:49:50;10.65;;;1.25;;
54121;SDS011;40029;58.708;50.190;2023-04-24T03:52:22;9.35;;;1.50;;
54121;SDS011;40029;58.708;50.190;2023-04-24T03:54:53;145.93;;;7.35;;
54121;SDS011;40029;58.708;50.190;2023-04-24T03:57:25;2.58;;;1.20;;
54121;SDS011;40029;58.708;50.190;2023-04-24T04:00:07;6.72;;;1.20;;
54121;SDS011;40029;58.708;50.190;2023-04-24T04:02:46;3.10;;;0.90;;
54121;SDS011;40029;58.708;50.190;2023-04-24T04:05:17;1.42;;;0.82;;
54121;SDS011;40029;58.708;50.190;2023-04-24T04:07:48;9.30;;;2.03;;
54121;SDS011;40029;58.708;50.190;2023-04-24T04:10:20;2.45;;;1.95;;
54121;SDS011;40029;58.708;50.190;2023-04-24T04:12:51;19.58;;;2.22;;
54121;SDS011;40029;58.708;50.190;2023-04-24T04:15:22;20.95;;;2.92;;
54121;SDS011;40029;58.708;50.190;2023-04-24T04:17:54;5.43;;;2.80;;
54121;SDS011;40029;58.708;50.190;2023-04-24T04:20:26;12.15;;;3.28;;
54121;SDS011;40029;58.708;50.190;2023-04-24T04:22:57;14.43;;;3.97;;
54121;SDS011;40029;58.708;50.190;2023-04-24T04:25:39;16.50;;;5.30;;
54121;SDS011;40029;58.708;50.190;2023-04-24T04:28:11;115.32;;;9.25;;
54121;SDS011;40029;58.708;50.190;2023-04-24T04:30:42;117.18;;;11.85;;
54121;SDS011;40029;58.708;50.190;2023-04-24T04:33:13;75.72;;;7.82;;
54121;SDS011;40029;58.708;50.190;2023-04-24T04:35:46;54.53;;;7.22;;
54121;SDS011;40029;58.708;50.190;2023-04-24T04:38:23;85.95;;;8.80;;
54121;SDS011;40029;58.708;50.190;2023-04-24T04:41:05;48.10;;;7.38;;
54121;SDS011;40029;58.708;50.190;2023-04-24T04:43:38;66.35;;;7.15;;
54121;SDS011;40029;58.708;50.190;2023-04-24T04:46:12;32.95;;;5.53;;
54121;SDS011;40029;58.708;50.190;2023-04-24T04:49:10;18.60;;;1.63;;
54121;SDS011;40029;58.708;50.190;2023-04-24T04:51:42;10.25;;;1.85;;
54121;SDS011;40029;58.708;50.190;2023-04-24T04:54:13;104.50;;;5.93;;
54121;SDS011;40029;58.708;50.190;2023-04-24T04:56:45;15.05;;;1.42;;
54121;SDS011;40029;58.708;50.190;2023-04-24T04:59:16;11.95;;;1.73;;
54121;SDS011;40029;58.708;50.190;2023-04-24T05:01:47;6.03;;;1.17;;
54121;SDS011;40029;58.708;50.190;2023-04-24T05:04:20;52.28;;;3.85;;
54121;SDS011;40029;58.708;50.190;2023-04-24T05:06:51;6.32;;;1.42;;
54121;SDS011;40029;58.708;50.190;2023-04-24T05:09:22;20.90;;;2.25;;
54121;SDS011;40029;58.708;50.190;2023-04-24T05:12:00;3.50;;;2.15;;
54121;SDS011;40029;58.708;50.190;2023-04-24T05:14:35;20.60;;;2.72;;
54121;SDS011;40029;58.708;50.190;2023-04-24T05:17:07;17.92;;;2.78;;
54121;SDS011;40029;58.708;50.190;2023-04-24T05:19:38;2.67;;;2.08;;
54121;SDS011;40029;58.708;50.190;2023-04-24T05:22:10;7.45;;;2.60;;
54121;SDS011;40029;58.708;50.190;2023-04-24T05:24:51;8.02;;;2.70;;
54121;SDS011;40029;58.708;50.190;2023-04-24T05:27:37;101.32;;;8.75;;
54121;SDS011;40029;58.708;50.190;2023-04-24T05:30:27;18.25;;;3.88;;
54121;SDS011;40029;58.708;50.190;2023-04-24T05:32:59;10.98;;;3.50;;
54121;SDS011;40029;58.708;50.190;2023-04-24T05:35:30;19.80;;;3.70;;
54121;SDS011;40029;58.708;50.190;2023-04-24T05:38:01;19.50;;;3.97;;
54121;SDS011;40029;58.708;50.190;2023-04-24T05:40:32;11.63;;;3.72;;
54121;SDS011;40029;58.708;50.190;2023-04-24T05:43:03;58.17;;;6.25;;
54121;SDS011;40029;58.708;50.190;2023-04-24T05:45:53;44.65;;;5.43;;
54121;SDS011;40029;58.708;50.190;2023-04-24T05:48:24;7.03;;;3.03;;
54121;SDS011;40029;58.708;50.190;2023-04-24T05:50:56;6.60;;;2.83;;
54121;SDS011;40029;58.708;50.190;2023-04-24T05:53:28;12.98;;;3.05;;
54121;SDS011;40029;58.708;50.190;2023-04-24T05:55:59;8.68;;;3.20;;
54121;SDS011;40029;58.708;50.190;2023-04-24T05:58:31;9.75;;;2.35;;
54121;SDS011;40029;58.708;50.190;2023-04-24T06:01:03;9.15;;;2.80;;
54121;SDS011;40029;58.708;50.190;2023-04-24T06:03:53;59.70;;;4.80;;
54121;SDS011;40029;58.708;50.190;2023-04-24T06:06:24;11.25;;;2.90;;
54121;SDS011;40029;58.708;50.190;2023-04-24T06:08:57;6.43;;;2.33;;
54121;SDS011;40029;58.708;50.190;2023-04-24T06:11:30;15.25;;;2.08;;
54121;SDS011;40029;58.708;50.190;2023-04-24T06:14:03;12.25;;;2.28;;
54121;SDS011;40029;58.708;50.190;2023-04-24T06:16:43;20.25;;;3.05;;
54121;SDS011;40029;58.708;50.190;2023-04-24T06:19:27;9.48;;;1.83;;
54121;SDS011;40029;58.708;50.190;2023-04-24T06:21:58;9.93;;;1.75;;
54121;SDS011;40029;58.708;50.190;2023-04-24T06:24:29;15.57;;;2.65;;
54121;SDS011;40029;58.708;50.190;2023-04-24T06:27:02;4.03;;;1.38;;
54121;SDS011;40029;58.708;50.190;2023-04-24T06:29:33;11.68;;;2.10;;
54121;SDS011;40029;58.708;50.190;2023-04-24T06:32:06;6.15;;;1.58;;
54121;SDS011;40029;58.708;50.190;2023-04-24T06:34:38;6.43;;;1.83;;
54121;SDS011;40029;58.708;50.190;2023-04-24T06:37:09;14.13;;;2.33;;
54121;SDS011;40029;58.708;50.190;2023-04-24T06:39:59;11.65;;;2.35;;
54121;SDS011;40029;58.708;50.190;2023-04-24T06:42:48;7.28;;;2.13;;
54121;SDS011;40029;58.708;50.190;2023-04-24T06:45:19;8.20;;;2.30;;
54121;SDS011;40029;58.708;50.190;2023-04-24T06:47:50;11.02;;;2.42;;
54121;SDS011;40029;58.708;50.190;2023-04-24T06:50:22;18.70;;;3.20;;
54121;SDS011;40029;58.708;50.190;2023-04-24T06:52:53;12.45;;;2.45;;
54121;SDS011;40029;58.708;50.190;2023-04-24T06:55:25;9.50;;;2.45;;
54121;SDS011;40029;58.708;50.190;2023-04-24T06:58:14;10.68;;;3.40;;
54121;SDS011;40029;58.708;50.190;2023-04-24T07:01:05;6.53;;;2.92;;
54121;SDS011;40029;58.708;50.190;2023-04-24T07:03:36;15.38;;;2.75;;
54121;SDS011;40029;58.708;50.190;2023-04-24T07:06:07;9.63;;;2.45;;
54121;SDS011;40029;58.708;50.190;2023-04-24T07:08:57;7.07;;;2.72;;
54121;SDS011;40029;58.708;50.190;2023-04-24T07:11:28;23.52;;;4.22;;
54121;SDS011;40029;58.708;50.190;2023-04-24T07:13:59;18.00;;;3.40;;
54121;SDS011;40029;58.708;50.190;2023-04-24T07:16:31;14.70;;;2.97;;
54121;SDS011;40029;58.708;50.190;2023-04-24T07:19:20;10.40;;;3.17;;
54121;SDS011;40029;58.708;50.190;2023-04-24T07:21:51;7.03;;;3.33;;
54121;SDS011;40029;58.708;50.190;2023-04-24T07:24:24;9.23;;;3.17;;
54121;SDS011;40029;58.708;50.190;2023-04-24T07:27:14;7.00;;;2.88;;
54121;SDS011;40029;58.708;50.190;2023-04-24T07:29:46;8.27;;;3.13;;
54121;SDS011;40029;58.708;50.190;2023-04-24T07:32:17;6.30;;;3.38;;
54121;SDS011;40029;58.708;50.190;2023-04-24T07:34:48;13.50;;;3.47;;
54121;SDS011;40029;58.708;50.190;2023-04-24T07:37:19;11.38;;;4.32;;
54121;SDS011;40029;58.708;50.190;2023-04-24T07:39:50;16.40;;;4.95;;
54121;SDS011;40029;58.708;50.190;2023-04-24T07:42:21;7.38;;;3.47;;
54121;SDS011;40029;58.708;50.190;2023-04-24T07:44:52;15.32;;;4.28;;
54121;SDS011;40029;58.708;50.190;2023-04-24T07:47:24;20.33;;;5.03;;
54121;SDS011;40029;58.708;50.190;2023-04-24T07:49:55;17.27;;;5.95;;
54121;SDS011;40029;58.708;50.190;2023-04-24T07:52:27;23.23;;;5.65;;
54121;SDS011;40029;58.708;50.190;2023-04-24T07:54:58;12.02;;;5.13;;
54121;SDS011;40029;58.708;50.190;2023-04-24T07:57:30;11.88;;;5.13;;
54121;SDS011;40029;58.708;50.190;2023-04-24T08:00:03;15.40;;;5.40;;
54121;SDS011;40029;58.708;50.190;2023-04-24T08:02:42;7.30;;;3.92;;
54121;SDS011;40029;58.708;50.190;2023-04-24T08:05:13;9.60;;;2.50;;
54121;SDS011;40029;58.708;50.190;2023-04-24T08:07:45;18.40;;;2.58;;
54121;SDS011;40029;58.708;50.190;2023-04-24T08:10:19;8.45;;;2.13;;
54121;SDS011;40029;58.708;50.190;2023-04-24T08:12:52;16.02;;;1.98;;
54121;SDS011;40029;58.708;50.190;2023-04-24T08:15:23;10.45;;;2.28;;
54121;SDS011;40029;58.708;50.190;2023-04-24T08:18:13;6.65;;;2.20;;
54121;SDS011;40029;58.708;50.190;2023-04-24T08:20:46;10.68;;;2.97;;
54121;SDS011;40029;58.708;50.190;2023-04-24T08:23:17;12.73;;;2.92;;
54121;SDS011;40029;58.708;50.190;2023-04-24T08:25:48;17.52;;;2.72;;
54121;SDS011;40029;58.708;50.190;2023-04-24T08:28:38;9.77;;;2.72;;
54121;SDS011;40029;58.708;50.190;2023-04-24T08:31:09;13.02;;;4.60;;
54121;SDS011;40029;58.708;50.190;2023-04-24T08:33:41;7.05;;;2.47;;
54121;SDS011;40029;58.708;50.190;2023-04-24T08:36:12;14.40;;;4.00;;
54121;SDS011;40029;58.708;50.190;2023-04-24T08:38:43;11.25;;;3.20;;
54121;SDS011;40029;58.708;50.190;2023-04-24T08:41:17;19.10;;;3.22;;
54121;SDS011;40029;58.708;50.190;2023-04-24T08:43:49;6.25;;;3.47;;
54121;SDS011;40029;58.708;50.190;2023-04-24T08:46:21;10.80;;;2.60;;
54121;SDS011;40029;58.708;50.190;2023-04-24T08:48:53;9.75;;;2.92;;
54121;SDS011;40029;58.708;50.190;2023-04-24T08:51:24;20.52;;;3.15;;
54121;SDS011;40029;58.708;50.190;2023-04-24T08:53:57;2.42;;;1.52;;
54121;SDS011;40029;58.708;50.190;2023-04-24T08:56:28;14.85;;;2.05;;
54121;SDS011;40029;58.708;50.190;2023-04-24T08:59:01;2.63;;;1.55;;
54121;SDS011;40029;58.708;50.190;2023-04-24T09:01:32;9.95;;;2.20;;
54121;SDS011;40029;58.708;50.190;2023-04-24T09:04:04;19.20;;;2.03;;
54121;SDS011;40029;58.708;50.190;2023-04-24T09:06:40;14.88;;;2.33;;
54121;SDS011;40029;58.708;50.190;2023-04-24T09:09:11;25.05;;;3.65;;
54121;SDS011;40029;58.708;50.190;2023-04-24T09:12:01;13.15;;;2.15;;
54121;SDS011;40029;58.708;50.190;2023-04-24T09:14:34;12.68;;;1.80;;
54121;SDS011;40029;58.708;50.190;2023-04-24T09:17:07;13.98;;;2.08;;
54121;SDS011;40029;58.708;50.190;2023-04-24T09:19:38;8.75;;;2.22;;
54121;SDS011;40029;58.708;50.190;2023-04-24T09:22:10;3.72;;;1.20;;
54121;SDS011;40029;58.708;50.190;2023-04-24T09:24:41;9.90;;;1.85;;
54121;SDS011;40029;58.708;50.190;2023-04-24T09:27:13;7.93;;;2.38;;
54121;SDS011;40029;58.708;50.190;2023-04-24T09:29:55;4.88;;;1.48;;
54121;SDS011;40029;58.708;50.190;2023-04-24T09:32:26;4.53;;;1.40;;
54121;SDS011;40029;58.708;50.190;2023-04-24T09:35:06;3.75;;;1.38;;
54121;SDS011;40029;58.708;50.190;2023-04-24T09:37:42;6.72;;;1.75;;
54121;SDS011;40029;58.708;50.190;2023-04-24T09:40:19;10.38;;;2.10;;
54121;SDS011;40029;58.708;50.190;2023-04-24T09:43:10;5.90;;;2.40;;
54121;SDS011;40029;58.708;50.190;2023-04-24T09:45:41;10.15;;;2.05;;
54121;SDS011;40029;58.708;50.190;2023-04-24T09:48:12;74.05;;;5.65;;
54121;SDS011;40029;58.708;50.190;2023-04-24T09:50:45;9.82;;;3.60;;
54121;SDS011;40029;58.708;50.190;2023-04-24T09:53:18;3.28;;;2.03;;
54121;SDS011;40029;58.708;50.190;2023-04-24T09:55:55;9.68;;;2.90;;
54121;SDS011;40029;58.708;50.190;2023-04-24T09:58:28;9.70;;;2.13;;
54121;SDS011;40029;58.708;50.190;2023-04-24T10:00:59;5.22;;;1.52;;
54121;SDS011;40029;58.708;50.190;2023-04-24T10:03:31;11.63;;;1.60;;
54121;SDS011;40029;58.708;50.190;2023-04-24T10:06:04;3.05;;;1.10;;
54121;SDS011;40029;58.708;50.190;2023-04-24T10:08:39;15.85;;;1.50;;
54121;SDS011;40029;58.708;50.190;2023-04-24T10:11:10;15.77;;;1.98;;
54121;SDS011;40029;58.708;50.190;2023-04-24T10:13:42;10.02;;;1.83;;
54121;SDS011;40029;58.708;50.190;2023-04-24T10:16:14;4.57;;;1.45;;
54121;SDS011;40029;58.708;50.190;2023-04-24T10:18:45;2.00;;;1.60;;
54121;SDS011;40029;58.708;50.190;2023-04-24T10:21:18;11.52;;;2.35;;
54121;SDS011;40029;58.708;50.190;2023-04-24T10:23:50;5.95;;;1.17;;
54121;SDS011;40029;58.708;50.190;2023-04-24T10:26:22;5.80;;;1.35;;
54121;SDS011;40029;58.708;50.190;2023-04-24T10:28:53;10.48;;;1.50;;
54121;SDS011;40029;58.708;50.190;2023-04-24T10:31:30;8.77;;;1.97;;
54121;SDS011;40029;58.708;50.190;2023-04-24T10:34:03;6.00;;;3.55;;
54121;SDS011;40029;58.708;50.190;2023-04-24T10:36:36;7.28;;;1.40;;
54121;SDS011;40029;58.708;50.190;2023-04-24T10:39:13;9.43;;;1.38;;
54121;SDS011;40029;58.708;50.190;2023-04-24T10:41:46;13.57;;;1.75;;
54121;SDS011;40029;58.708;50.190;2023-04-24T10:44:19;2.97;;;1.25;;
54121;SDS011;40029;58.708;50.190;2023-04-24T10:47:14;10.10;;;1.30;;
54121;SDS011;40029;58.708;50.190;2023-04-24T10:49:45;7.13;;;2.28;;
54121;SDS011;40029;58.708;50.190;2023-04-24T10:52:16;4.60;;;2.20;;
54121;SDS011;40029;58.708;50.190;2023-04-24T10:54:48;26.98;;;4.22;;
54121;SDS011;40029;58.708;50.190;2023-04-24T11:02:47;16.02;;;1.60;;
54121;SDS011;40029;58.708;50.190;2023-04-24T11:05:21;3.88;;;1.42;;
54121;SDS011;40029;58.708;50.190;2023-04-24T11:10:54;13.85;;;1.90;;
54121;SDS011;40029;58.708;50.190;2023-04-24T11:13:27;12.95;;;2.92;;
54121;SDS011;40029;58.708;50.190;2023-04-24T11:19:06;6.65;;;1.70;;
54121;SDS011;40029;58.708;50.190;2023-04-24T11:21:59;2.45;;;1.80;;
54121;SDS011;40029;58.708;50.190;2023-04-24T11:27:15;8.00;;;3.25;;
54121;SDS011;40029;58.708;50.190;2023-04-24T11:30:06;7.60;;;2.58;;
54121;SDS011;40029;58.708;50.190;2023-04-24T11:32:40;4.45;;;1.90;;
54121;SDS011;40029;58.708;50.190;2023-04-24T11:35:16;7.78;;;4.80;;
54121;SDS011;40029;58.708;50.190;2023-04-24T11:37:49;6.28;;;1.50;;
54121;SDS011;40029;58.708;50.190;2023-04-24T11:40:22;6.03;;;1.42;;
54121;SDS011;40029;58.708;50.190;2023-04-24T11:42:54;32.20;;;2.80;;
54121;SDS011;40029;58.708;50.190;2023-04-24T11:45:31;6.85;;;1.70;;
54121;SDS011;40029;58.708;50.190;2023-04-24T11:48:02;9.27;;;1.77;;
54121;SDS011;40029;58.708;50.190;2023-04-24T11:50:34;12.13;;;2.45;;
54121;SDS011;40029;58.708;50.190;2023-04-24T11:53:05;2.85;;;1.48;;
54121;SDS011;40029;58.708;50.190;2023-04-24T11:55:37;3.13;;;1.65;;
54121;SDS011;40029;58.708;50.190;2023-04-24T11:58:08;6.47;;;1.95;;
54121;SDS011;40029;58.708;50.190;2023-04-24T12:00:39;8.32;;;1.55;;
54121;SDS011;40029;58.708;50.190;2023-04-24T12:03:10;4.13;;;1.70;;
54121;SDS011;40029;58.708;50.190;2023-04-24T12:05:42;5.90;;;1.67;;
54121;SDS011;40029;58.708;50.190;2023-04-24T12:08:30;7.03;;;1.75;;
54121;SDS011;40029;58.708;50.190;2023-04-24T12:11:03;9.30;;;1.60;;
54121;SDS011;40029;58.708;50.190;2023-04-24T12:13:37;11.15;;;2.08;;
54121;SDS011;40029;58.708;50.190;2023-04-24T12:16:09;5.13;;;1.77;;
54121;SDS011;40029;58.708;50.190;2023-04-24T12:18:44;4.38;;;2.05;;
54121;SDS011;40029;58.708;50.190;2023-04-24T12:21:20;7.85;;;1.48;;
54121;SDS011;40029;58.708;50.190;2023-04-24T12:23:54;4.00;;;2.45;;
54121;SDS011;40029;58.708;50.190;2023-04-24T12:26:26;9.38;;;3.17;;
54121;SDS011;40029;58.708;50.190;2023-04-24T12:29:01;9.02;;;1.95;;
54121;SDS011;40029;58.708;50.190;2023-04-24T12:31:34;5.43;;;1.77;;
54121;SDS011;40029;58.708;50.190;2023-04-24T12:34:16;21.40;;;2.42;;
54121;SDS011;40029;58.708;50.190;2023-04-24T12:36:51;13.20;;;2.20;;
54121;SDS011;40029;58.708;50.190;2023-04-24T12:39:22;7.05;;;3.67;;
54121;SDS011;40029;58.708;50.190;2023-04-24T12:41:57;5.90;;;2.33;;
54121;SDS011;40029;58.708;50.190;2023-04-24T12:44:32;5.70;;;2.33;;
54121;SDS011;40029;58.708;50.190;2023-04-24T12:47:05;10.00;;;4.10;;
54121;SDS011;40029;58.708;50.190;2023-04-24T12:49:36;12.23;;;2.83;;
54121;SDS011;40029;58.708;50.190;2023-04-24T12:52:07;7.88;;;2.25;;
54121;SDS011;40029;58.708;50.190;2023-04-24T12:54:38;5.90;;;3.78;;
54121;SDS011;40029;58.708;50.190;2023-04-24T12:57:09;7.63;;;3.17;;
54121;SDS011;40029;58.708;50.190;2023-04-24T12:59:41;7.82;;;2.28;;
54121;SDS011;40029;58.708;50.190;2023-04-24T13:02:30;5.50;;;2.60;;
54121;SDS011;40029;58.708;50.190;2023-04-24T13:05:02;5.93;;;2.20;;
54121;SDS011;40029;58.708;50.190;2023-04-24T13:07:37;12.27;;;2.80;;
54121;SDS011;40029;58.708;50.190;2023-04-24T13:10:08;10.43;;;3.20;;
54121;SDS011;40029;58.708;50.190;2023-04-24T13:12:40;18.63;;;2.75;;
54121;SDS011;40029;58.708;50.190;2023-04-24T13:15:11;26.65;;;3.30;;
54121;SDS011;40029;58.708;50.190;2023-04-24T13:17:43;17.73;;;4.07;;
54121;SDS011;40029;58.708;50.190;2023-04-24T13:20:14;4.75;;;2.70;;
54121;SDS011;40029;58.708;50.190;2023-04-24T13:22:45;16.95;;;2.85;;
54121;SDS011;40029;58.708;50.190;2023-04-24T13:25:16;7.93;;;1.98;;
54121;SDS011;40029;58.708;50.190;2023-04-24T13:27:48;46.95;;;3.88;;
54121;SDS011;40029;58.708;50.190;2023-04-24T13:30:19;13.40;;;1.90;;
54121;SDS011;40029;58.708;50.190;2023-04-24T13:32:51;7.93;;;1.90;;
54121;SDS011;40029;58.708;50.190;2023-04-24T13:35:22;6.85;;;2.90;;
54121;SDS011;40029;58.708;50.190;2023-04-24T13:37:53;2.92;;;1.73;;
54121;SDS011;40029;58.708;50.190;2023-04-24T13:40:24;7.45;;;2.75;;
54121;SDS011;40029;58.708;50.190;2023-04-24T13:42:55;15.68;;;3.05;;
54121;SDS011;40029;58.708;50.190;2023-04-24T13:45:26;8.73;;;2.75;;
54121;SDS011;40029;58.708;50.190;2023-04-24T13:47:58;17.65;;;4.07;;
54121;SDS011;40029;58.708;50.190;2023-04-24T13:50:29;15.02;;;3.80;;
54121;SDS011;40029;58.708;50.190;2023-04-24T13:53:01;8.80;;;2.85;;
54121;SDS011;40029;58.708;50.190;2023-04-24T13:55:32;8.52;;;3.00;;
54121;SDS011;40029;58.708;50.190;2023-04-24T13:58:04;6.72;;;1.50;;
54121;SDS011;40029;58.708;50.190;2023-04-24T14:00:35;13.98;;;2.80;;
54121;SDS011;40029;58.708;50.190;2023-04-24T14:03:07;4.07;;;1.77;;
54121;SDS011;40029;58.708;50.190;2023-04-24T14:05:38;10.80;;;2.90;;
54121;SDS011;40029;58.708;50.190;2023-04-24T14:08:09;15.82;;;2.50;;
54121;SDS011;40029;58.708;50.190;2023-04-24T14:10:40;16.80;;;2.30;;
54121;SDS011;40029;58.708;50.190;2023-04-24T14:13:11;12.68;;;1.83;;
54121;SDS011;40029;58.708;50.190;2023-04-24T14:15:43;7.72;;;2.10;;
54121;SDS011;40029;58.708;50.190;2023-04-24T14:18:14;20.88;;;2.70;;
54121;SDS011;40029;58.708;50.190;2023-04-24T14:20:45;11.88;;;2.55;;
54121;SDS011;40029;58.708;50.190;2023-04-24T14:23:16;9.50;;;3.05;;
54121;SDS011;40029;58.708;50.190;2023-04-24T14:26:06;8.20;;;2.40;;
54121;SDS011;40029;58.708;50.190;2023-04-24T14:28:37;70.28;;;6.65;;
54121;SDS011;40029;58.708;50.190;2023-04-24T14:31:09;17.60;;;3.85;;
54121;SDS011;40029;58.708;50.190;2023-04-24T14:33:40;18.38;;;6.05;;
54121;SDS011;40029;58.708;50.190;2023-04-24T14:36:11;13.77;;;3.80;;
54121;SDS011;40029;58.708;50.190;2023-04-24T14:38:42;39.58;;;6.97;;
54121;SDS011;40029;58.708;50.190;2023-04-24T14:41:13;13.00;;;5.05;;
54121;SDS011;40029;58.708;50.190;2023-04-24T14:43:44;6.68;;;2.15;;
54121;SDS011;40029;58.708;50.190;2023-04-24T14:46:16;23.60;;;2.80;;
54121;SDS011;40029;58.708;50.190;2023-04-24T14:48:47;13.88;;;2.30;;
54121;SDS011;40029;58.708;50.190;2023-04-24T14:51:18;11.93;;;1.95;;
54121;SDS011;40029;58.708;50.190;2023-04-24T14:53:49;5.07;;;1.95;;
54121;SDS011;40029;58.708;50.190;2023-04-24T14:56:20;6.60;;;2.60;;
54121;SDS011;40029;58.708;50.190;2023-04-24T14:58:51;16.20;;;3.20;;
54121;SDS011;40029;58.708;50.190;2023-04-24T15:01:23;10.55;;;6.03;;
54121;SDS011;40029;58.708;50.190;2023-04-24T15:03:54;20.27;;;3.17;;
54121;SDS011;40029;58.708;50.190;2023-04-24T15:06:26;6.88;;;2.38;;
54121;SDS011;40029;58.708;50.190;2023-04-24T15:08:57;15.43;;;2.65;;
54121;SDS011;40029;58.708;50.190;2023-04-24T15:11:28;9.07;;;2.30;;
54121;SDS011;40029;58.708;50.190;2023-04-24T15:13:59;16.00;;;6.45;;
54121;SDS011;40029;58.708;50.190;2023-04-24T15:16:31;14.38;;;5.57;;
54121;SDS011;40029;58.708;50.190;2023-04-24T15:19:02;16.98;;;8.20;;
54121;SDS011;40029;58.708;50.190;2023-04-24T15:21:33;44.05;;;9.98;;